Townley, New Jersey
Current Conditions -  °F | °C
As of 2:51 AM on Monday 22 Dec 2014 (Local Time) from KEWR Reporting Station
Overcast Overcast  
Wind Chill: 31°   Ceiling: 1500
Heat Index: 35°   Visibility: 10mi
Dew Point: 30°   Wind: 5mph
Humidity: 82%   Direction: 20°NNE
Pressure: 30.34"   Gusts: NA
Location:  40.6941°N, 74.2694°W
Report Text: KEWR 220751Z 02004KT 10SM BKN015 OVC021 02/M01 A3034 RMK AO2 SLP273 T00171011
Loading
Personal Weather Stations






























Interactive Weather Map New forecast layout! Learn more

10-Day Weather Forecast

Advertisements
Track Severe Weather on mobile